Time;durP1;ratioP1;P1;durP2;ratioP2;P2;SDS_P1;SDS_P2;PMS_P1;PMS_P2;Temp;Humidity;BMP_temperature;BMP_pressure;BME280_temperature;BME280_humidity;BME280_pressure;Samples;Min_cycle;Max_cycle;Signal;HPM_P1;HPM_P2
2023/04/17 00:00:00;;;;;;;;;12.00;9.33;;;;;11.97;47.45;102153.34;5018177;28;46050;-45
2023/04/17 00:02:25;;;;;;;;;8.67;6.33;;;;;11.93;47.64;102146.56;5017848;28;45315;-46
2023/04/17 00:04:51;;;;;;;;;11.33;11.33;;;;;11.91;48.30;102151.16;5017259;28;45645;-46
2023/04/17 00:07:21;;;;;;;;;46.00;36.75;;;;;11.91;48.35;102152.00;5017526;28;45304;-45
2023/04/17 00:09:46;;;;;;;;;27.50;19.50;;;;;11.89;48.46;102145.94;5017555;28;45362;-47
2023/04/17 00:12:12;;;;;;;;;21.33;15.00;;;;;11.88;48.29;102159.38;5017694;28;45416;-46
2023/04/17 00:14:37;;;;;;;;;41.25;35.50;;;;;11.84;48.71;102148.13;5016661;28;45663;-47
2023/04/17 00:17:02;;;;;;;;;32.75;27.75;;;;;11.82;48.56;102141.19;5017350;28;45224;-47
2023/04/17 00:19:27;;;;;;;;;30.00;24.75;;;;;11.79;48.77;102142.25;5017611;28;45454;-42
2023/04/17 00:21:53;;;;;;;;;18.00;13.33;;;;;11.76;48.80;102139.84;5017839;28;45268;-44
2023/04/17 00:24:18;;;;;;;;;12.67;12.67;;;;;11.74;49.01;102134.63;5017294;28;45283;-50
2023/04/17 00:26:43;;;;;;;;;19.33;10.67;;;;;11.73;48.69;102132.94;5016721;28;49485;-46
2023/04/17 00:29:09;;;;;;;;;14.00;12.33;;;;;11.71;49.08;102134.88;5017649;28;45359;-45
2023/04/17 00:31:34;;;;;;;;;12.00;12.00;;;;;11.68;49.35;102126.28;5017538;28;45382;-45
2023/04/17 00:34:00;;;;;;;;;17.33;13.00;;;;;11.67;48.87;102132.56;5017326;28;46050;-45
2023/04/17 00:36:30;;;;;;;;;19.00;11.33;;;;;11.64;49.30;102133.66;5017688;28;45502;-43
2023/04/17 00:38:55;;;;;;;;;8.67;8.67;;;;;11.62;49.75;102138.25;5017317;28;45320;-43
2023/04/17 00:41:21;;;;;;;;;13.00;12.00;;;;;11.61;49.58;102133.03;5017272;28;45649;-43
2023/04/17 00:43:46;;;;;;;;;15.67;12.00;;;;;11.59;49.87;102127.84;5016772;28;46084;-43
2023/04/17 00:46:11;;;;;;;;;8.67;8.00;;;;;11.56;50.00;102122.75;5016885;28;45397;-45
2023/04/17 00:48:39;;;;;;;;;9.00;8.67;;;;;11.55;49.80;102123.72;5016558;28;45633;-45
2023/04/17 00:51:05;;;;;;;;;19.00;11.00;;;;;11.51;49.78;102122.25;5017219;28;45778;-41
2023/04/17 00:53:31;;;;;;;;;63.25;47.00;;;;;11.49;49.89;102117.03;5016711;28;46028;-42
2023/04/17 00:56:02;;;;;;;;;26.25;25.25;;;;;11.47;50.02;102113.66;5016721;28;45560;-46
2023/04/17 00:58:27;;;;;;;;;11.00;7.00;;;;;11.46;49.73;102116.41;5016513;28;45165;-44
2023/04/17 01:00:52;;;;;;;;;14.67;9.00;;;;;11.44;49.68;102116.53;5016917;28;45405;-42
2023/04/17 01:03:18;;;;;;;;;8.00;8.00;;;;;11.42;49.90;102110.50;5016633;28;45188;-45
2023/04/17 01:05:51;;;;;;;;;7.00;6.00;;;;;11.40;50.22;102100.91;5016188;28;45375;-48
2023/04/17 01:08:17;;;;;;;;;6.00;6.00;;;;;11.34;50.24;102094.25;5016708;28;45362;-45
2023/04/17 01:10:43;;;;;;;;;5.00;5.00;;;;;11.36;50.17;102100.31;5016560;28;45539;-45
2023/04/17 01:13:08;;;;;;;;;13.33;6.33;;;;;11.35;49.99;102100.44;5016072;28;45413;-50
2023/04/17 01:15:34;;;;;;;;;7.33;6.00;;;;;11.32;50.62;102103.31;5016460;28;45362;-45
2023/04/17 01:18:00;;;;;;;;;4.00;3.67;;;;;11.31;50.24;102101.63;5016326;28;45594;-42
2023/04/17 01:20:28;;;;;;;;;5.67;5.00;;;;;11.27;50.01;102100.16;5016537;28;45485;-44
2023/04/17 01:22:54;;;;;;;;;6.00;5.33;;;;;11.26;50.50;102103.81;5016346;28;45326;-45
2023/04/17 01:25:20;;;;;;;;;6.33;5.00;;;;;11.23;50.22;102110.22;5015766;28;45668;-44
2023/04/17 01:27:45;;;;;;;;;7.50;6.00;;;;;11.20;50.38;102107.78;5015653;28;45406;-47
2023/04/17 01:30:11;;;;;;;;;6.00;6.00;;;;;11.18;50.89;102107.91;5015197;28;45324;-41
2023/04/17 01:32:37;;;;;;;;;7.33;6.67;;;;;11.13;50.70;102106.56;5016371;28;46316;-43
2023/04/17 01:35:02;;;;;;;;;5.33;5.33;;;;;11.14;50.90;102111.75;5016056;28;45383;-42
2023/04/17 01:37:28;;;;;;;;;6.67;3.00;;;;;11.13;50.89;102106.56;5016216;28;45801;-45
2023/04/17 01:39:54;;;;;;;;;6.00;3.67;;;;;11.11;51.02;102105.81;5016485;28;45338;-44
2023/04/17 01:42:20;;;;;;;;;5.33;5.33;;;;;11.09;51.30;102108.59;5015982;28;46177;-45
2023/04/17 01:44:45;;;;;;;;;3.67;3.67;;;;;11.07;51.30;102099.03;5015796;28;45526;-45
2023/04/17 01:47:11;;;;;;;;;8.67;6.00;;;;;11.06;51.47;102102.66;5016023;28;45322;-43
2023/04/17 01:49:36;;;;;;;;;7.00;6.00;;;;;11.03;51.74;102102.88;5016408;28;45552;-44
2023/04/17 01:52:01;;;;;;;;;5.33;5.33;;;;;11.01;51.83;102105.69;5015949;28;45403;-43
2023/04/17 01:54:27;;;;;;;;;8.33;8.33;;;;;11.00;51.70;102114.63;5015893;28;45868;-42
2023/04/17 01:56:52;;;;;;;;;9.33;7.00;;;;;10.97;52.20;102114.84;5016055;28;45871;-47
2023/04/17 01:59:18;;;;;;;;;9.33;7.00;;;;;10.93;52.53;102100.06;5016170;28;45479;-41
2023/04/17 02:01:44;;;;;;;;;10.33;7.67;;;;;10.94;52.37;102099.94;5015628;28;46337;-44
2023/04/17 02:04:09;;;;;;;;;5.00;5.00;;;;;10.95;52.39;102109.63;5015709;28;45395;-45
2023/04/17 02:06:35;;;;;;;;;7.00;4.67;;;;;10.93;52.52;102111.56;5015695;28;45406;-44
2023/04/17 02:09:00;;;;;;;;;8.00;6.33;;;;;10.93;52.74;102124.88;5015866;28;45461;-43
2023/04/17 02:11:27;;;;;;;;;7.33;6.00;;;;;10.91;52.87;102112.63;5015974;28;46658;-44
2023/04/17 02:13:52;;;;;;;;;12.67;9.00;;;;;10.91;52.63;102110.84;5015407;28;45520;-48
2023/04/17 02:16:20;;;;;;;;;4.00;3.00;;;;;10.92;52.70;102106.38;5015795;28;45382;-49
2023/04/17 02:18:46;;;;;;;;;7.00;6.00;;;;;10.90;53.06;102106.47;5015695;28;45436;-46
2023/04/17 02:21:11;;;;;;;;;7.00;7.00;;;;;10.91;53.38;102107.31;5016045;28;45470;-49
2023/04/17 02:23:37;;;;;;;;;8.33;5.67;;;;;10.87;53.23;102101.41;5015494;28;45466;-44
2023/04/17 02:26:02;;;;;;;;;10.33;6.33;;;;;10.85;52.98;102100.66;5015474;28;45457;-51
2023/04/17 02:28:27;;;;;;;;;7.00;5.00;;;;;10.85;53.02;102105.13;5015646;28;45303;-44
2023/04/17 02:30:53;;;;;;;;;10.67;6.67;;;;;10.83;53.19;102099.06;5015354;28;46174;-49
2023/04/17 02:33:18;;;;;;;;;6.67;6.67;;;;;10.79;52.96;102100.25;5015627;28;45343;-52
2023/04/17 02:35:44;;;;;;;;;9.33;6.00;;;;;10.77;53.16;102096.88;5015547;28;45898;-52
2023/04/17 02:38:12;;;;;;;;;12.00;9.33;;;;;10.73;53.33;102089.09;5017378;28;45300;-46
2023/04/17 02:40:37;;;;;;;;;10.33;7.00;;;;;10.71;53.35;102093.69;5019115;28;45387;-44
2023/04/17 02:43:06;;;;;;;;;5.67;5.67;;;;;10.67;53.63;102094.91;5018611;28;45311;-46
2023/04/17 02:45:31;;;;;;;;;6.67;6.33;;;;;10.67;54.14;102088.72;5019128;28;45388;-46
2023/04/17 02:47:59;;;;;;;;;7.00;7.00;;;;;10.63;54.22;102088.09;5018904;28;45389;-46
2023/04/17 02:50:25;;;;;;;;;11.00;8.33;;;;;10.61;54.38;102092.66;5018874;28;46327;-48
2023/04/17 02:52:51;;;;;;;;;8.67;7.67;;;;;10.59;54.68;102091.94;5018571;28;45336;-44
2023/04/17 02:55:27;;;;;;;;;8.00;7.75;;;;;10.55;54.26;102090.47;5018868;28;45328;-43
2023/04/17 02:57:53;;;;;;;;;9.33;9.33;;;;;10.53;54.46;102092.38;5018939;28;45441;-50
2023/04/17 03:00:19;;;;;;;;;13.33;8.00;;;;;10.52;54.69;102089.84;5018327;28;46424;-45
2023/04/17 03:02:45;;;;;;;;;7.00;7.00;;;;;10.50;54.74;102089.97;5018646;28;45354;-45
2023/04/17 03:05:13;;;;;;;;;11.33;11.33;;;;;10.52;54.73;102093.38;5018266;28;45396;-44
2023/04/17 03:07:39;;;;;;;;;12.75;10.75;;;;;10.51;54.95;102090.81;5018551;28;45522;-47
2023/04/17 03:10:08;;;;;;;;;11.25;11.25;;;;;10.48;54.75;102091.88;5018258;28;46394;-48
2023/04/17 03:12:36;;;;;;;;;9.00;8.50;;;;;10.46;54.38;102089.34;5018186;28;45381;-43
2023/04/17 03:15:02;;;;;;;;;10.75;7.00;;;;;10.44;54.87;102090.41;5018294;28;45393;-44
2023/04/17 03:17:27;;;;;;;;;11.25;10.50;;;;;10.40;54.71;102083.63;5018235;28;45477;-45
2023/04/17 03:19:53;;;;;;;;;10.00;10.00;;;;;10.39;54.42;102096.06;5018255;28;46117;-46
2023/04/17 03:22:18;;;;;;;;;10.00;8.25;;;;;10.37;54.86;102094.50;5018115;28;48649;-44
2023/04/17 03:24:43;;;;;;;;;11.00;8.75;;;;;10.36;54.79;102096.28;5016962;28;45475;-45
2023/04/17 03:27:09;;;;;;;;;12.25;9.00;;;;;10.35;55.07;102091.09;5018591;28;45366;-48
2023/04/17 03:29:34;;;;;;;;;12.50;9.25;;;;;10.34;55.01;102100.03;5017738;28;46420;-41
2023/04/17 03:31:59;;;;;;;;;12.25;9.00;;;;;10.32;54.84;102091.31;5018273;28;45490;-45
2023/04/17 03:34:25;;;;;;;;;9.25;9.25;;;;;10.31;55.08;102092.28;5018368;28;45172;-45
2023/04/17 03:36:50;;;;;;;;;10.75;9.00;;;;;10.29;55.12;102091.56;5018320;28;45313;-45
2023/04/17 03:39:15;;;;;;;;;12.00;7.00;;;;;10.30;55.28;102094.09;5017738;28;45330;-44
2023/04/17 03:41:41;;;;;;;;;9.50;9.00;;;;;10.32;55.23;102092.16;5017740;28;45403;-43
2023/04/17 03:44:09;;;;;;;;;13.75;8.75;;;;;10.32;55.14;102094.81;5017820;28;45328;-45
2023/04/17 03:46:35;;;;;;;;;11.75;10.00;;;;;10.32;55.12;102094.81;5018077;28;45418;-42
2023/04/17 03:49:00;;;;;;;;;13.25;11.75;;;;;10.35;55.24;102093.75;5016527;28;45359;-45
2023/04/17 03:51:26;;;;;;;;;20.50;12.50;;;;;10.34;55.27;102097.38;5017550;28;47476;-44
2023/04/17 03:53:52;;;;;;;;;15.25;10.50;;;;;10.38;55.53;102101.53;5017851;28;45319;-46
2023/04/17 03:56:17;;;;;;;;;10.75;10.75;;;;;10.40;55.66;102105.75;5018044;28;45454;-42
2023/04/17 03:58:42;;;;;;;;;11.00;9.75;;;;;10.46;55.49;102109.78;5017463;28;45442;-42
2023/04/17 04:01:11;;;;;;;;;14.50;12.50;;;;;10.49;55.36;102109.53;5017597;28;45411;-43
2023/04/17 04:03:36;;;;;;;;;10.25;10.25;;;;;10.48;55.28;102098.06;5017635;28;45294;-44
2023/04/17 04:06:02;;;;;;;;;14.00;11.50;;;;;10.53;55.05;102112.84;5017719;28;45491;-43
2023/04/17 04:08:28;;;;;;;;;17.75;13.50;;;;;10.54;55.71;102115.41;5017424;28;45344;-44
2023/04/17 04:10:53;;;;;;;;;15.75;11.50;;;;;10.54;55.48;102106.56;5016178;28;46002;-41
2023/04/17 04:13:19;;;;;;;;;15.00;14.00;;;;;10.55;56.15;102108.25;5017477;28;45450;-45
2023/04/17 04:15:44;;;;;;;;;15.25;13.00;;;;;10.54;55.73;102112.75;5017504;28;45403;-44
2023/04/17 04:18:09;;;;;;;;;13.75;13.00;;;;;10.53;55.59;102102.19;5017253;28;46100;-45
2023/04/17 04:20:35;;;;;;;;;15.00;15.00;;;;;10.52;55.98;102106.66;5017395;28;45272;-43
2023/04/17 04:23:02;;;;;;;;;18.75;15.00;;;;;10.52;55.99;102112.00;5017578;28;45390;-46
2023/04/17 04:25:27;;;;;;;;;19.00;13.75;;;;;10.45;56.29;102100.97;5017593;28;45458;-41
2023/04/17 04:27:55;;;;;;;;;19.75;15.50;;;;;10.47;56.26;102112.31;5017251;28;46274;-45
2023/04/17 04:30:20;;;;;;;;;14.75;13.50;;;;;10.47;56.57;102106.16;5017125;28;45514;-44
2023/04/17 04:32:46;;;;;;;;;19.00;13.00;;;;;10.45;56.88;102108.09;5017198;28;45367;-45
2023/04/17 04:35:12;;;;;;;;;20.25;15.50;;;;;10.47;56.96;102115.00;5017309;28;45622;-42
2023/04/17 04:37:38;;;;;;;;;19.00;15.00;;;;;10.51;56.95;102115.63;5016659;28;46178;-47
2023/04/17 04:40:09;;;;;;;;;17.00;15.75;;;;;10.49;56.46;102112.19;5016860;28;45329;-45
2023/04/17 04:42:35;;;;;;;;;17.25;15.00;;;;;10.51;56.91;102122.75;5016927;28;45414;-44
2023/04/17 04:45:01;;;;;;;;;16.25;16.25;;;;;10.48;57.49;102114.03;5017102;28;45323;-46
2023/04/17 04:47:26;;;;;;;;;15.00;10.25;;;;;10.51;57.21;102123.59;5016733;28;45331;-47
2023/04/17 04:49:52;;;;;;;;;24.25;16.50;;;;;10.52;57.28;102114.66;5015350;28;45749;-46
2023/04/17 04:52:17;;;;;;;;;25.00;18.50;;;;;10.55;57.66;102127.72;5017132;28;45268;-52
2023/04/17 04:54:42;;;;;;;;;23.50;13.75;;;;;10.56;57.19;102128.56;5017074;28;45289;-44
2023/04/17 04:57:08;;;;;;;;;18.75;15.25;;;;;10.56;57.29;102131.25;5016499;28;49182;-46
2023/04/17 04:59:33;;;;;;;;;18.25;16.00;;;;;10.55;57.49;102129.53;5016479;28;45370;-45
2023/04/17 05:01:58;;;;;;;;;18.00;15.75;;;;;10.55;57.61;102129.53;5016371;28;45834;-46
2023/04/17 05:04:23;;;;;;;;;21.00;18.00;;;;;10.55;57.57;102132.22;5016721;28;45413;-46
2023/04/17 05:06:49;;;;;;;;;27.25;20.50;;;;;10.53;57.60;102132.31;5016448;28;45838;-43
2023/04/17 05:09:15;;;;;;;;;19.00;16.25;;;;;10.52;57.80;102125.28;5016584;28;45517;-47
2023/04/17 05:11:40;;;;;;;;;24.00;20.00;;;;;10.51;57.82;102126.25;5016574;28;45405;-47
2023/04/17 05:14:06;;;;;;;;;24.50;19.75;;;;;10.54;58.14;102128.69;5016699;28;45427;-44
2023/04/17 05:16:31;;;;;;;;;24.00;22.00;;;;;10.57;57.72;102123.13;5016249;28;45360;-47
2023/04/17 05:18:58;;;;;;;;;30.50;18.50;;;;;10.63;58.09;102127.19;5016355;28;45535;-46
2023/04/17 05:21:23;;;;;;;;;24.00;18.25;;;;;10.63;57.92;102111.22;5016421;28;45442;-45
2023/04/17 05:23:49;;;;;;;;;22.50;20.25;;;;;10.67;57.45;102118.84;5016520;28;45307;-46
2023/04/17 05:26:14;;;;;;;;;24.75;21.75;;;;;10.69;57.89;102124.88;5016227;28;45534;-45
2023/04/17 05:28:39;;;;;;;;;27.50;18.00;;;;;10.71;58.16;102122.13;5016115;28;45478;-46
2023/04/17 05:31:05;;;;;;;;;24.25;20.75;;;;;10.76;57.68;102132.44;5016012;28;45466;-44
2023/04/17 05:33:30;;;;;;;;;29.75;24.00;;;;;10.79;57.77;102127.75;5016401;28;45260;-46
2023/04/17 05:35:55;;;;;;;;;19.50;15.50;;;;;10.80;57.38;102117.94;5016260;28;46194;-45
2023/04/17 05:38:21;;;;;;;;;33.00;26.50;;;;;10.84;57.98;102120.25;5016033;28;45230;-47
2023/04/17 05:40:46;;;;;;;;;20.75;19.75;;;;;10.87;58.04;102127.13;5016384;28;45296;-45
2023/04/17 05:43:12;;;;;;;;;19.50;17.25;;;;;10.91;58.13;102131.28;5016368;28;45435;-46
2023/04/17 05:45:37;;;;;;;;;26.75;21.75;;;;;10.92;58.25;102133.84;5016026;28;45664;-45
2023/04/17 05:48:03;;;;;;;;;24.25;21.25;;;;;10.90;58.04;102116.28;5016237;28;45370;-50
2023/04/17 05:50:28;;;;;;;;;23.25;20.00;;;;;10.96;57.82;102130.00;5015906;28;45440;-51
2023/04/17 05:52:55;;;;;;;;;85.00;62.25;;;;;10.94;58.45;102129.25;5016454;28;45419;-49
2023/04/17 05:55:21;;;;;;;;;40.25;29.50;;;;;10.94;58.11;102125.72;5015113;28;46613;-44
2023/04/17 05:57:46;;;;;;;;;35.00;24.00;;;;;10.89;58.78;102118.09;5015773;28;45565;-53
2023/04/17 06:00:19;;;;;;;;;57.50;43.25;;;;;10.91;58.71;102129.50;5015259;28;45338;-53
2023/04/17 06:02:45;;;;;;;;;22.75;20.25;;;;;10.94;58.38;102139.88;5016190;28;45470;-45
2023/04/17 06:05:10;;;;;;;;;28.50;23.00;;;;;10.95;59.22;102135.41;5015787;28;46143;-48
2023/04/17 06:07:37;;;;;;;;;33.50;28.00;;;;;10.92;59.28;102130.34;5015739;28;45460;-52
2023/04/17 06:10:07;;;;;;;;;32.00;23.50;;;;;10.96;59.35;102143.31;5015961;28;45418;-42
2023/04/17 06:12:33;;;;;;;;;32.50;21.25;;;;;10.95;59.53;102138.06;5018711;28;45500;-49
2023/04/17 06:14:59;;;;;;;;;32.25;27.75;;;;;10.97;59.17;102141.47;5022264;28;46098;-46
2023/04/17 06:17:24;;;;;;;;;24.75;24.00;;;;;10.94;59.15;102133.72;5022392;28;45512;-51
2023/04/17 06:19:50;;;;;;;;;32.75;26.75;;;;;10.95;59.34;102132.75;5022336;28;45416;-50
2023/04/17 06:22:16;;;;;;;;;29.50;22.00;;;;;10.96;58.62;102145.97;5022682;28;45462;-43
2023/04/17 06:24:41;;;;;;;;;34.25;29.00;;;;;10.97;59.06;102141.47;5022108;28;46110;-49
2023/04/17 06:27:06;;;;;;;;;33.00;23.00;;;;;10.99;59.04;102139.53;5021902;28;45384;-49
2023/04/17 06:29:32;;;;;;;;;32.25;28.00;;;;;11.00;59.88;102143.94;5022232;28;45304;-50
2023/04/17 06:31:57;;;;;;;;;29.00;25.50;;;;;11.00;59.15;102141.25;5022204;28;45616;-44
2023/04/17 06:34:22;;;;;;;;;34.75;24.75;;;;;11.02;59.72;102143.78;5021932;28;47058;-43
2023/04/17 06:36:48;;;;;;;;;37.25;25.00;;;;;11.04;59.83;102148.06;5021926;28;45268;-46
2023/04/17 06:39:13;;;;;;;;;35.50;25.00;;;;;11.06;60.10;102145.25;5022178;28;45383;-45
2023/04/17 06:41:38;;;;;;;;;31.75;27.50;;;;;11.06;59.73;102148.78;5022241;28;45398;-50
2023/04/17 06:44:04;;;;;;;;;31.50;26.25;;;;;11.04;60.21;102137.41;5021551;28;45387;-45
2023/04/17 06:46:30;;;;;;;;;33.75;26.25;;;;;11.10;60.06;102144.91;5021877;28;45751;-47
2023/04/17 06:48:58;;;;;;;;;44.75;25.00;;;;;11.16;59.94;102152.44;5022321;28;45381;-44
2023/04/17 06:51:26;;;;;;;;;89.25;64.25;;;;;11.20;60.32;102153.03;5022397;28;45224;-46
2023/04/17 06:53:51;;;;;;;;;46.25;33.00;;;;;11.20;60.13;102148.56;5021792;28;47059;-48
2023/04/17 06:56:17;;;;;;;;;34.00;27.00;;;;;11.23;60.38;102158.16;5021875;28;45438;-47
2023/04/17 06:58:45;;;;;;;;;33.50;27.50;;;;;11.19;60.42;102151.34;5022084;28;45397;-46
2023/04/17 07:01:11;;;;;;;;;41.75;28.25;;;;;11.21;60.19;102166.28;5022045;28;45619;-43
2023/04/17 07:03:41;;;;;;;;;36.50;26.50;;;;;11.21;60.22;102158.28;5021685;28;46279;-46
2023/04/17 07:06:07;;;;;;;;;36.00;28.75;;;;;11.22;60.33;102167.97;5021554;28;45383;-44
2023/04/17 07:08:33;;;;;;;;;32.75;30.00;;;;;11.22;60.46;102167.97;5022056;28;45488;-46
2023/04/17 07:10:59;;;;;;;;;35.50;28.50;;;;;11.24;60.56;102167.84;5021967;28;45426;-47
2023/04/17 07:13:24;;;;;;;;;32.50;26.75;;;;;11.26;60.50;102173.06;5021876;28;46255;-46
2023/04/17 07:15:53;;;;;;;;;34.75;20.75;;;;;11.28;60.81;102181.78;5021429;28;45486;-47
2023/04/17 07:18:20;;;;;;;;;37.25;32.25;;;;;11.31;60.67;102177.06;5021785;28;45343;-46
2023/04/17 07:20:46;;;;;;;;;42.25;31.75;;;;;11.34;60.40;102176.84;5022072;28;45662;-42
2023/04/17 07:23:11;;;;;;;;;44.00;27.00;;;;;11.39;60.77;102184.47;5021294;28;46025;-43
2023/04/17 07:25:36;;;;;;;;;40.25;31.75;;;;;11.44;60.43;102182.31;5018456;28;45530;-44
2023/04/17 07:28:02;;;;;;;;;38.75;28.50;;;;;11.46;60.12;102191.03;5018474;28;45508;-42
2023/04/17 07:30:27;;;;;;;;;35.50;29.75;;;;;11.46;60.21;102191.03;5018739;28;45817;-43
2023/04/17 07:32:53;;;;;;;;;34.75;27.75;;;;;11.43;60.40;102191.28;5018463;28;46100;-44
2023/04/17 07:35:18;;;;;;;;;40.50;33.50;;;;;11.43;60.48;102185.94;5018494;28;45384;-46
2023/04/17 07:37:44;;;;;;;;;43.50;34.75;;;;;11.41;60.86;102198.53;5018481;28;45464;-47
2023/04/17 07:40:09;;;;;;;;;42.00;34.25;;;;;11.44;60.79;102200.97;5018654;28;45502;-46
2023/04/17 07:42:35;;;;;;;;;36.00;27.00;;;;;11.44;60.86;102190.31;5018000;28;45440;-47
2023/04/17 07:45:01;;;;;;;;;45.75;34.75;;;;;11.50;60.82;102195.16;5018192;28;45368;-45
2023/04/17 07:47:26;;;;;;;;;52.75;31.25;;;;;11.54;60.67;102198.44;5018393;28;45627;-44
2023/04/17 07:49:51;;;;;;;;;34.75;30.75;;;;;11.57;60.49;102192.88;5018396;28;45605;-46
2023/04/17 07:52:17;;;;;;;;;44.25;32.00;;;;;11.59;60.79;102194.47;5018063;28;47230;-44
2023/04/17 07:54:43;;;;;;;;;40.75;31.75;;;;;11.61;60.66;102195.19;5018040;28;45356;-45
2023/04/17 07:57:08;;;;;;;;;41.00;29.00;;;;;11.61;60.46;102197.00;5018075;28;45393;-46
2023/04/17 07:59:35;;;;;;;;;54.50;36.50;;;;;11.61;60.43;102205.84;5018085;28;45382;-45
2023/04/17 08:02:01;;;;;;;;;45.50;32.50;;;;;11.60;61.02;102198.00;5017782;28;46038;-47
2023/04/17 08:04:26;;;;;;;;;45.75;35.00;;;;;11.59;61.28;102202.47;5017822;28;45386;-43
2023/04/17 08:06:51;;;;;;;;;41.75;35.00;;;;;11.59;60.31;102199.81;5017954;28;45302;-49
2023/04/17 08:09:17;;;;;;;;;46.50;32.75;;;;;11.57;60.86;102206.22;5018088;28;45359;-46
2023/04/17 08:11:44;;;;;;;;;40.25;32.25;;;;;11.56;61.04;102201.84;5017730;28;45626;-48
2023/04/17 08:14:10;;;;;;;;;43.50;35.75;;;;;11.53;60.87;102202.06;5017785;28;45427;-45
2023/04/17 08:16:36;;;;;;;;;44.75;38.50;;;;;11.52;61.66;102200.38;5017734;28;45245;-46
2023/04/17 08:19:01;;;;;;;;;42.00;31.25;;;;;11.53;61.50;102197.59;5017864;28;45233;-45
2023/04/17 08:21:26;;;;;;;;;35.75;33.75;;;;;11.53;61.55;102204.75;5017893;28;45485;-45
2023/04/17 08:23:51;;;;;;;;;43.50;33.50;;;;;11.55;61.51;102195.69;5017373;28;45450;-49
2023/04/17 08:26:19;;;;;;;;;49.25;36.00;;;;;11.59;61.42;102194.47;5017700;28;45407;-45
2023/04/17 08:28:45;;;;;;;;;46.75;33.75;;;;;11.62;61.63;102199.53;5017857;28;45260;-46
2023/04/17 08:31:10;;;;;;;;;45.75;34.50;;;;;11.66;61.43;102208.16;5017359;28;45808;-45
2023/04/17 08:33:35;;;;;;;;;49.25;36.00;;;;;11.70;61.23;102202.47;5017940;28;45385;-45
2023/04/17 08:36:01;;;;;;;;;45.25;31.50;;;;;11.76;61.18;102208.31;5015886;28;45789;-49
2023/04/17 08:38:28;;;;;;;;;39.25;33.50;;;;;11.81;61.06;102203.47;5017884;28;45323;-44
2023/04/17 08:41:01;;;;;;;;;43.25;34.75;;;;;11.84;61.07;102195.25;5017207;28;45618;-46
2023/04/17 08:43:28;;;;;;;;;53.75;39.00;;;;;11.96;61.10;102197.81;5017173;28;45332;-48
2023/04/17 08:45:55;;;;;;;;;43.50;36.25;;;;;12.07;60.99;102204.13;5017353;28;45668;-45
2023/04/17 08:48:22;;;;;;;;;50.50;36.25;;;;;12.15;60.03;102199.91;5017257;28;45433;-44
2023/04/17 08:50:49;;;;;;;;;44.75;36.00;;;;;12.20;60.65;102199.53;5016963;28;46272;-44
2023/04/17 08:53:15;;;;;;;;;50.50;39.00;;;;;12.28;60.00;102193.59;5016960;28;45350;-41
2023/04/17 08:55:42;;;;;;;;;47.25;33.50;;;;;12.44;60.03;102197.56;5016927;28;45323;-47
2023/04/17 08:58:08;;;;;;;;;40.25;36.00;;;;;12.56;59.76;102178.88;5016962;28;45434;-45
2023/04/17 09:00:38;;;;;;;;;53.50;38.00;;;;;12.61;59.18;102182.84;5016791;28;46156;-43
2023/04/17 09:03:06;;;;;;;;;50.50;39.75;;;;;12.83;59.04;102184.63;5016863;28;45442;-44
2023/04/17 09:05:32;;;;;;;;;53.25;39.25;;;;;13.06;58.58;102181.84;5016485;28;45368;-46
2023/04/17 09:08:08;;;;;;;;;44.50;35.25;;;;;13.32;57.81;102185.06;5017059;28;45326;-44
2023/04/17 09:10:44;;;;;;;;;36.00;24.25;;;;;13.53;57.15;102185.94;5016597;28;46206;-45
2023/04/17 09:13:13;;;;;;;;;47.00;37.75;;;;;13.65;57.00;102184.00;5016740;28;45414;-44
2023/04/17 09:15:39;;;;;;;;;47.00;34.75;;;;;13.64;56.53;102180.50;5016707;28;45323;-45
2023/04/17 09:18:19;;;;;;;;;44.25;37.25;;;;;13.63;56.45;102177.94;5016641;28;45524;-47
2023/04/17 09:20:50;;;;;;;;;45.75;37.00;;;;;13.70;56.20;102184.47;5016474;28;46354;-44
2023/04/17 09:23:15;;;;;;;;;41.50;33.50;;;;;13.76;56.28;102188.44;5016316;28;45236;-46
2023/04/17 09:25:41;;;;;;;;;50.00;35.50;;;;;13.75;56.21;102174.22;5016577;28;45387;-45
2023/04/17 09:28:12;;;;;;;;;53.50;36.75;;;;;13.78;56.04;102179.31;5016499;28;45396;-46
2023/04/17 09:30:38;;;;;;;;;46.75;35.75;;;;;13.84;55.92;102186.81;5016180;28;46038;-45
2023/04/17 09:33:06;;;;;;;;;53.00;38.50;;;;;13.90;56.06;102180.91;5016224;28;45430;-43
2023/04/17 09:35:33;;;;;;;;;54.00;42.00;;;;;13.93;56.30;102187.81;5016293;28;45622;-46
2023/04/17 09:37:58;;;;;;;;;46.75;35.00;;;;;13.88;56.40;102184.72;5015247;28;45555;-46
2023/04/17 09:40:25;;;;;;;;;47.75;36.25;;;;;13.86;56.25;102186.66;5016186;28;46572;-45
2023/04/17 09:43:02;;;;;;;;;52.00;37.75;;;;;13.86;56.46;102184.84;5016406;28;45379;-46
2023/04/17 09:45:34;;;;;;;;;55.00;40.75;;;;;13.84;56.12;102183.28;5016569;28;45328;-44
2023/04/17 09:48:00;;;;;;;;;43.50;37.50;;;;;13.81;56.67;102187.06;5015254;28;45440;-45
2023/04/17 09:50:26;;;;;;;;;45.25;36.50;;;;;13.84;56.41;102177.94;5016115;28;46137;-45
2023/04/17 09:52:53;;;;;;;;;48.50;33.75;;;;;13.84;56.73;102175.25;5016173;28;45339;-46
2023/04/17 09:55:20;;;;;;;;;47.50;38.00;;;;;13.79;57.07;102178.34;5016115;28;45523;-45
2023/04/17 09:57:54;;;;;;;;;35.00;29.75;;;;;13.72;56.69;102177.16;5016149;28;45437;-44
2023/04/17 10:00:22;;;;;;;;;50.00;36.50;;;;;13.57;57.05;102184.69;5015969;28;45321;-44
2023/04/17 10:02:52;;;;;;;;;47.50;37.50;;;;;13.47;57.22;102189.09;5015737;28;45521;-44
2023/04/17 10:05:22;;;;;;;;;54.25;37.75;;;;;13.44;57.70;102179.53;5015919;28;45410;-46
2023/04/17 10:07:47;;;;;;;;;43.50;35.00;;;;;13.45;57.26;102178.56;5016197;28;45390;-46
2023/04/17 10:10:32;;;;;;;;;48.00;36.50;;;;;13.45;57.41;102186.56;5015695;28;47087;-44
2023/04/17 10:13:05;;;;;;;;;53.25;39.25;;;;;13.47;57.50;102181.09;5016460;28;45445;-45
2023/04/17 10:15:32;;;;;;;;;46.75;38.00;;;;;13.49;57.68;102187.16;5015808;28;45705;-46
2023/04/17 10:18:17;;;;;;;;;43.25;36.25;;;;;13.53;57.46;102190.44;5015772;28;45723;-49
2023/04/17 10:20:47;;;;;;;;;53.75;37.25;;;;;13.58;57.31;102180.19;5015599;28;47261;-45
2023/04/17 10:23:31;;;;;;;;;54.25;36.75;;;;;13.64;57.15;102179.66;5015842;28;45371;-46
2023/04/17 10:26:24;;;;;;;;;48.75;36.00;;;;;13.63;56.68;102168.09;5015607;28;45543;-44
2023/04/17 10:28:52;;;;;;;;;54.75;36.00;;;;;13.66;57.26;102169.69;5015949;28;45374;-47
2023/04/17 10:31:19;;;;;;;;;46.00;37.00;;;;;13.77;56.92;102168.72;5015517;28;46239;-48
2023/04/17 10:33:54;;;;;;;;;53.25;34.75;;;;;13.82;56.93;102169.19;5015494;28;45486;-45
2023/04/17 10:36:37;;;;;;;;;50.50;37.25;;;;;13.82;57.04;102170.06;5015620;28;45380;-44
2023/04/17 10:39:13;;;;;;;;;57.00;39.75;;;;;13.79;56.82;102170.31;5015437;28;45520;-43
2023/04/17 10:42:06;;;;;;;;;55.00;40.25;;;;;13.78;57.01;102176.66;5015279;28;45986;-45
2023/04/17 10:44:38;;;;;;;;;50.25;40.00;;;;;13.78;56.91;102171.28;5015295;28;45763;-45
2023/04/17 10:47:13;;;;;;;;;50.75;37.25;;;;;13.85;56.80;102158.22;5015371;28;45380;-47
2023/04/17 10:49:53;;;;;;;;;54.50;39.75;;;;;13.93;56.73;102158.41;5015482;28;45398;-45
2023/04/17 10:52:31;;;;;;;;;44.50;36.25;;;;;13.95;56.61;102159.13;5015028;28;45329;-44
2023/04/17 10:55:12;;;;;;;;;51.75;37.00;;;;;13.94;56.19;102163.59;5015556;28;45451;-44
2023/04/17 10:57:54;;;;;;;;;47.50;35.75;;;;;13.88;56.39;102158.81;5015021;28;45284;-42
2023/04/17 11:00:28;;;;;;;;;43.75;35.75;;;;;13.86;56.41;102163.47;5018942;28;45485;-47
2023/04/17 11:02:53;;;;;;;;;48.25;37.75;;;;;13.84;56.34;102156.53;5018336;28;47070;-46
2023/04/17 11:05:20;;;;;;;;;50.75;39.00;;;;;13.87;56.12;102159.78;5018234;28;45339;-42
2023/04/17 11:07:49;;;;;;;;;55.00;38.25;;;;;13.92;56.17;102157.56;5018729;28;45387;-46
2023/04/17 11:10:17;;;;;;;;;43.33;33.67;;;;;14.04;56.41;102160.16;5017652;28;45328;-45